createdAt,value
2018-01-08T00:01:25.854Z,5.20
2018-01-08T00:03:54.092Z,5.20
2018-01-08T00:06:22.429Z,5.20
2018-01-08T00:08:50.679Z,5.20
2018-01-08T00:11:19.704Z,5.20
2018-01-08T00:13:47.982Z,5.20
2018-01-08T00:16:16.238Z,5.10
2018-01-08T00:18:44.483Z,5.20
2018-01-08T00:21:12.832Z,5.20
2018-01-08T00:23:41.075Z,5.20
2018-01-08T00:26:10.101Z,5.30
2018-01-08T00:28:38.430Z,5.30
2018-01-08T00:31:06.776Z,5.20
2018-01-08T00:33:35.012Z,5.20
2018-01-08T00:36:04.064Z,5.30
2018-01-08T00:38:32.304Z,5.30
2018-01-08T00:41:01.362Z,5.20
2018-01-08T00:43:29.715Z,5.20
2018-01-08T00:45:57.973Z,5.10
2018-01-08T00:48:26.230Z,5.10
2018-01-08T00:50:55.254Z,5.10
2018-01-08T00:53:23.506Z,5.10
2018-01-08T00:55:51.840Z,5.00
2018-01-08T00:58:20.087Z,5.10
2018-01-08T01:00:49.115Z,5.10
2018-01-08T01:03:17.634Z,5.10
2018-01-08T01:05:45.929Z,5.10
2018-01-08T01:08:14.160Z,5.10
2018-01-08T01:10:42.420Z,5.20
2018-01-08T01:13:11.439Z,5.10
2018-01-08T01:15:39.709Z,5.10
2018-01-08T01:18:08.018Z,5.00
2018-01-08T01:20:36.294Z,5.00
2018-01-08T01:23:04.580Z,4.90
2018-01-08T01:25:32.864Z,4.90
2018-01-08T01:28:01.143Z,4.90
2018-01-08T01:30:29.408Z,4.90
2018-01-08T01:32:57.645Z,4.90
2018-01-08T01:35:26.671Z,4.90
2018-01-08T01:37:54.935Z,4.90
2018-01-08T01:40:23.958Z,4.80
2018-01-08T01:42:52.233Z,4.80
2018-01-08T01:45:20.487Z,4.90
2018-01-08T01:47:49.524Z,4.90
2018-01-08T01:50:17.778Z,4.90
2018-01-08T01:52:46.815Z,4.90
2018-01-08T01:55:15.100Z,4.80
2018-01-08T01:57:43.391Z,4.90
2018-01-08T02:00:11.683Z,4.80
2018-01-08T02:02:40.038Z,4.90
2018-01-08T02:05:08.285Z,4.80
2018-01-08T02:07:37.317Z,4.90
2018-01-08T02:10:05.614Z,4.90
2018-01-08T02:12:33.864Z,4.90
2018-01-08T02:15:02.116Z,4.80
2018-01-08T02:17:31.164Z,4.90
2018-01-08T02:19:59.402Z,4.90
2018-01-08T02:22:28.434Z,4.80
2018-01-08T02:24:56.685Z,4.80
2018-01-08T02:27:25.707Z,4.80
2018-01-08T02:29:53.958Z,4.70
2018-01-08T02:32:22.988Z,4.80
2018-01-08T02:34:51.247Z,4.80
2018-01-08T02:37:20.267Z,4.70
2018-01-08T02:39:48.510Z,4.70
2018-01-08T02:42:17.538Z,4.80
2018-01-08T02:44:45.778Z,4.80
2018-01-08T02:47:14.062Z,4.70
2018-01-08T02:49:42.314Z,4.80
2018-01-08T02:52:10.696Z,4.80
2018-01-08T02:54:38.944Z,4.70
2018-01-08T02:57:07.204Z,4.70
2018-01-08T02:59:36.224Z,4.70
2018-01-08T03:02:04.513Z,4.70
2018-01-08T03:04:32.805Z,4.70
2018-01-08T03:07:01.065Z,4.70
2018-01-08T03:09:29.318Z,4.70
2018-01-08T03:11:58.347Z,4.70
2018-01-08T03:14:26.601Z,4.70
2018-01-08T03:16:55.634Z,4.50
2018-01-08T03:19:23.891Z,4.50
2018-01-08T03:21:52.166Z,4.60
2018-01-08T03:24:21.202Z,4.70
2018-01-08T03:26:49.461Z,4.70
2018-01-08T03:29:17.719Z,4.70
2018-01-08T03:31:46.767Z,4.70
2018-01-08T03:34:15.017Z,4.70
2018-01-08T03:36:43.322Z,4.70
2018-01-08T03:39:11.574Z,4.70
2018-01-08T03:41:39.863Z,4.70
2018-01-08T03:44:08.113Z,4.80
2018-01-08T03:46:36.383Z,4.70
2018-01-08T03:49:04.653Z,4.60
2018-01-08T03:51:33.012Z,4.70
2018-01-08T03:54:01.296Z,4.70
2018-01-08T03:56:29.564Z,4.70
2018-01-08T03:58:57.814Z,4.80
2018-01-08T04:01:26.862Z,4.80
2018-01-08T04:03:55.107Z,4.70
2018-01-08T04:06:23.379Z,4.80
2018-01-08T04:08:52.392Z,4.80
2018-01-08T04:11:20.733Z,4.70
2018-01-08T04:13:48.987Z,4.80
2018-01-08T04:16:17.238Z,4.70
2018-01-08T04:18:45.543Z,4.70
2018-01-08T04:21:13.811Z,4.80
2018-01-08T04:23:42.054Z,4.70
2018-01-08T04:26:11.090Z,4.80
2018-01-08T04:28:39.342Z,4.70
2018-01-08T04:31:08.373Z,4.70
2018-01-08T04:33:36.633Z,4.70
2018-01-08T04:36:05.753Z,4.70
2018-01-08T04:38:34.018Z,4.70
2018-01-08T04:41:02.326Z,4.70
2018-01-08T04:43:30.575Z,4.60
2018-01-08T04:45:59.583Z,4.60
2018-01-08T04:48:27.842Z,4.60
2018-01-08T04:50:56.879Z,4.60
2018-01-08T04:53:25.135Z,4.60
2018-01-08T04:55:53.386Z,4.60
2018-01-08T04:58:21.686Z,4.50
2018-01-08T05:00:50.696Z,4.60
2018-01-08T05:03:20.636Z,4.60
2018-01-08T05:05:48.891Z,4.60
2018-01-08T05:08:17.919Z,4.60
2018-01-08T05:10:46.174Z,4.50
2018-01-08T05:13:14.453Z,4.50
2018-01-08T05:15:42.708Z,4.60
2018-01-08T05:18:10.971Z,4.60
2018-01-08T05:20:39.261Z,4.60
2018-01-08T05:23:07.507Z,4.50
2018-01-08T05:25:35.815Z,4.50
2018-01-08T05:28:04.089Z,4.50
2018-01-08T05:30:32.341Z,4.50
2018-01-08T05:33:00.598Z,4.50
2018-01-08T05:35:28.859Z,4.50
2018-01-08T05:37:57.121Z,4.60
2018-01-08T05:40:25.375Z,4.60
2018-01-08T05:42:53.653Z,4.70
2018-01-08T05:45:21.914Z,4.80
2018-01-08T05:47:50.182Z,4.60
2018-01-08T05:50:19.194Z,4.60
2018-01-08T05:52:47.538Z,4.60
2018-01-08T05:55:15.811Z,4.60
2018-01-08T05:57:44.158Z,4.60
2018-01-08T06:00:12.421Z,4.60
2018-01-08T06:02:40.665Z,4.60
2018-01-08T06:05:09.714Z,4.60
2018-01-08T06:07:37.964Z,4.60
2018-01-08T06:10:06.234Z,4.60
2018-01-08T06:12:35.245Z,4.60
2018-01-08T06:15:03.827Z,4.60
2018-01-08T06:17:32.146Z,4.60
2018-01-08T06:20:00.398Z,4.60
2018-01-08T06:22:28.644Z,4.60
2018-01-08T06:24:56.907Z,4.60
2018-01-08T06:27:25.157Z,4.60
2018-01-08T06:29:53.424Z,4.70
2018-01-08T06:32:22.249Z,4.60
2018-01-08T06:34:51.121Z,4.60
2018-01-08T06:37:19.452Z,4.60
2018-01-08T06:39:47.712Z,4.60
2018-01-08T06:42:15.955Z,4.60
2018-01-08T06:44:44.662Z,4.70
2018-01-08T06:47:12.964Z,4.60
2018-01-08T06:49:41.238Z,4.60
2018-01-08T06:52:09.484Z,4.60
2018-01-08T06:54:37.764Z,4.60
2018-01-08T06:57:06.783Z,4.60
2018-01-08T06:59:35.046Z,4.60
2018-01-08T07:02:03.302Z,4.60
2018-01-08T07:04:31.838Z,4.70
2018-01-08T07:07:00.119Z,4.70
2018-01-08T07:09:28.399Z,4.70
2018-01-08T07:11:56.674Z,4.70
2018-01-08T07:14:24.922Z,4.60
2018-01-08T07:16:53.968Z,4.60
2018-01-08T07:19:22.240Z,4.60
2018-01-08T07:21:50.503Z,4.60
2018-01-08T07:24:18.759Z,4.70
2018-01-08T07:26:47.786Z,4.60
2018-01-08T07:29:16.043Z,4.60
2018-01-08T07:31:45.075Z,4.60
2018-01-08T07:34:13.372Z,4.60
2018-01-08T07:36:41.631Z,4.60
2018-01-08T07:39:10.879Z,4.70
2018-01-08T07:41:39.149Z,4.70
2018-01-08T07:44:07.403Z,4.70
2018-01-08T07:46:35.699Z,4.60
2018-01-08T07:49:03.946Z,4.70
2018-01-08T07:51:32.222Z,4.70
2018-01-08T07:54:01.234Z,4.70
2018-01-08T07:56:29.538Z,4.60
2018-01-08T07:58:57.863Z,4.70
2018-01-08T08:01:26.645Z,4.70
2018-01-08T08:03:55.637Z,4.70
2018-01-08T08:06:23.910Z,4.70
2018-01-08T08:08:52.205Z,4.70
2018-01-08T08:11:20.452Z,4.80
2018-01-08T08:13:48.701Z,4.80
2018-01-08T08:16:16.958Z,4.80
2018-01-08T08:18:45.227Z,4.70
2018-01-08T08:21:13.474Z,4.70
2018-01-08T08:23:41.734Z,4.90
2018-01-08T08:26:10.030Z,4.90
2018-01-08T08:28:39.033Z,4.80
2018-01-08T08:31:07.290Z,4.80
2018-01-08T08:33:35.559Z,4.90
2018-01-08T08:36:03.807Z,4.90
2018-01-08T08:38:32.078Z,4.80
2018-01-08T08:41:00.327Z,4.80
2018-01-08T08:43:28.674Z,4.80
2018-01-08T08:45:56.890Z,4.80
2018-01-08T08:48:25.187Z,4.80
2018-01-08T08:50:53.439Z,4.80
2018-01-08T08:53:22.566Z,4.80
2018-01-08T08:55:50.815Z,4.70
2018-01-08T08:58:19.950Z,4.70
2018-01-08T09:00:48.202Z,4.80
2018-01-08T09:03:16.470Z,4.80
2018-01-08T09:05:45.482Z,4.80
2018-01-08T09:08:13.753Z,4.80
2018-01-08T09:10:42.763Z,4.90
2018-01-08T09:13:11.100Z,4.90
2018-01-08T09:15:39.453Z,4.90
2018-01-08T09:18:08.002Z,4.80
2018-01-08T09:20:36.569Z,4.80
2018-01-08T09:23:05.703Z,5.00
2018-01-08T09:25:34.063Z,5.00
2018-01-08T09:28:03.130Z,5.10
2018-01-08T09:30:31.398Z,5.10
2018-01-08T09:32:59.687Z,5.10
2018-01-08T09:35:27.930Z,5.10
2018-01-08T09:37:56.457Z,5.30
2018-01-08T09:40:24.698Z,5.20
2018-01-08T09:42:52.963Z,5.20
2018-01-08T09:45:21.982Z,5.30
2018-01-08T09:47:50.267Z,5.30
2018-01-08T09:50:18.529Z,5.40
2018-01-08T09:52:48.310Z,5.30
2018-01-08T09:55:16.566Z,5.30
2018-01-08T09:57:45.201Z,5.30
2018-01-08T10:00:13.451Z,5.40
2018-01-08T10:02:53.689Z,5.40
2018-01-08T10:05:39.813Z,5.50
2018-01-08T10:08:26.147Z,5.50
2018-01-08T10:11:12.369Z,5.50
2018-01-08T10:13:59.465Z,5.40
2018-01-08T10:16:45.744Z,5.40
2018-01-08T10:19:31.878Z,5.50
2018-01-08T10:21:59.915Z,5.50
2018-01-08T10:24:28.205Z,5.60
2018-01-08T10:26:56.508Z,5.70
2018-01-08T10:29:24.751Z,5.70
2018-01-08T10:31:52.993Z,5.80
2018-01-08T10:34:22.849Z,5.80
2018-01-08T10:36:51.140Z,5.70
2018-01-08T10:39:19.404Z,5.80
2018-01-08T10:41:53.440Z,5.80
2018-01-08T10:44:27.458Z,5.80
2018-01-08T10:47:01.532Z,5.80
2018-01-08T10:49:36.335Z,5.90
2018-01-08T10:52:04.120Z,5.90
2018-01-08T10:54:33.996Z,6.00
2018-01-08T10:57:02.247Z,6.00
2018-01-08T10:59:30.520Z,6.00
2018-01-08T11:02:04.548Z,5.90
2018-01-08T11:04:32.839Z,5.90
2018-01-08T11:07:01.232Z,5.90
2018-01-08T11:09:29.751Z,6.00
2018-01-08T11:11:58.982Z,5.90
2018-01-08T11:14:28.364Z,5.90
2018-01-08T11:16:56.992Z,5.90
2018-01-08T11:19:26.267Z,6.00
2018-01-08T11:21:54.841Z,6.00
2018-01-08T11:24:23.172Z,6.00
2018-01-08T11:26:51.612Z,6.00
2018-01-08T11:29:20.238Z,6.00
2018-01-08T11:31:48.789Z,6.10
2018-01-08T11:34:17.109Z,6.10
2018-01-08T11:36:45.382Z,6.20
2018-01-08T11:39:13.658Z,6.20
2018-01-08T11:41:42.690Z,6.20
2018-01-08T11:44:10.946Z,6.20
2018-01-08T11:46:39.461Z,6.20
2018-01-08T11:49:07.737Z,6.20
2018-01-08T11:51:35.997Z,6.10
2018-01-08T11:54:04.251Z,6.10
2018-01-08T11:56:33.280Z,6.20
2018-01-08T11:59:01.574Z,6.20
2018-01-08T12:01:29.828Z,6.30
2018-01-08T12:03:58.854Z,6.30
2018-01-08T12:06:27.208Z,6.30
2018-01-08T12:08:55.528Z,6.40
2018-01-08T12:11:23.798Z,6.30
2018-01-08T12:13:52.102Z,6.40
2018-01-08T12:16:20.371Z,6.40
2018-01-08T12:18:49.166Z,6.50
2018-01-08T12:21:17.441Z,6.50
2018-01-08T12:23:45.721Z,6.50
2018-01-08T12:26:14.017Z,6.60
2018-01-08T12:28:42.263Z,6.60
2018-01-08T12:31:10.543Z,6.70
2018-01-08T12:33:38.791Z,6.70
2018-01-08T12:36:07.846Z,6.70
2018-01-08T12:38:36.421Z,6.70
2018-01-08T12:41:04.707Z,6.70
2018-01-08T12:43:32.954Z,6.70
2018-01-08T12:46:01.223Z,6.80
2018-01-08T12:48:30.242Z,6.90
2018-01-08T12:50:58.498Z,6.90
2018-01-08T12:53:27.518Z,7.00
2018-01-08T12:55:55.785Z,7.00
2018-01-08T12:58:24.807Z,7.20
2018-01-08T13:00:53.102Z,7.20
2018-01-08T13:03:21.354Z,7.20
2018-01-08T13:05:50.394Z,7.30
2018-01-08T13:08:18.640Z,7.30
2018-01-08T13:10:47.772Z,7.40
2018-01-08T13:13:16.022Z,7.40
2018-01-08T13:15:44.297Z,7.40
2018-01-08T13:18:14.093Z,7.50
2018-01-08T13:20:42.365Z,7.40
2018-01-08T13:23:10.620Z,7.50
2018-01-08T13:25:38.891Z,7.60
2018-01-08T13:28:07.725Z,7.60
2018-01-08T13:30:35.994Z,7.50
2018-01-08T13:33:04.374Z,7.60
2018-01-08T13:35:32.639Z,7.60
2018-01-08T13:38:00.912Z,7.60
2018-01-08T13:40:29.185Z,7.60
2018-01-08T13:42:57.484Z,7.60
2018-01-08T13:45:25.747Z,7.50
2018-01-08T13:47:54.016Z,7.50
2018-01-08T13:50:22.327Z,7.40
2018-01-08T13:52:50.602Z,7.30
2018-01-08T13:55:19.060Z,7.30
2018-01-08T13:57:47.324Z,7.30
2018-01-08T14:00:16.378Z,7.30
2018-01-08T14:02:44.659Z,7.30
2018-01-08T14:05:12.939Z,7.30
2018-01-08T14:07:41.235Z,7.20
2018-01-08T14:10:09.497Z,7.20
2018-01-08T14:12:37.756Z,7.10
2018-01-08T14:15:06.011Z,7.10
2018-01-08T14:17:35.144Z,7.10
2018-01-08T14:20:03.407Z,7.10
2018-01-08T14:22:31.678Z,7.20
2018-01-08T14:24:59.930Z,7.20
2018-01-08T14:27:28.194Z,7.20
2018-01-08T14:29:56.466Z,7.10
2018-01-08T14:32:24.735Z,7.10
2018-01-08T14:34:52.988Z,7.10
2018-01-08T14:37:21.251Z,7.00
2018-01-08T14:39:50.270Z,6.90
2018-01-08T14:42:18.552Z,6.90
2018-01-08T14:44:46.855Z,6.80
2018-01-08T14:47:15.119Z,6.70
2018-01-08T14:49:43.367Z,6.80
2018-01-08T14:52:12.422Z,6.80
2018-01-08T14:54:40.667Z,6.80
2018-01-08T14:57:08.948Z,6.80
2018-01-08T14:59:37.201Z,6.70
2018-01-08T15:02:06.246Z,6.70
2018-01-08T15:04:34.514Z,6.70
2018-01-08T15:07:02.792Z,6.70
2018-01-08T15:09:31.058Z,6.70
2018-01-08T15:11:59.372Z,6.60
2018-01-08T15:14:27.619Z,6.60
2018-01-08T15:16:55.883Z,6.60
2018-01-08T15:19:24.899Z,6.50
2018-01-08T15:21:53.161Z,6.50
2018-01-08T15:24:22.214Z,6.40
2018-01-08T15:26:50.489Z,6.40
2018-01-08T15:29:18.750Z,6.30
2018-01-08T15:31:47.032Z,6.30
2018-01-08T15:34:16.042Z,6.30
2018-01-08T15:36:44.338Z,6.30
2018-01-08T15:39:12.593Z,6.30
2018-01-08T15:41:40.855Z,6.30
2018-01-08T15:44:09.878Z,6.20
2018-01-08T15:46:38.149Z,6.20
2018-01-08T15:49:06.412Z,6.20
2018-01-08T15:51:35.453Z,6.20
2018-01-08T15:54:03.709Z,6.20
2018-01-08T15:56:31.988Z,6.20
2018-01-08T15:59:00.231Z,6.20
2018-01-08T16:01:28.498Z,6.20
2018-01-08T16:03:56.745Z,6.10
2018-01-08T16:06:25.003Z,6.20
2018-01-08T16:08:53.353Z,6.20
2018-01-08T16:11:21.698Z,6.20
2018-01-08T16:13:49.974Z,6.20
2018-01-08T16:16:19.014Z,6.20
2018-01-08T16:18:47.249Z,6.20
2018-01-08T16:21:15.533Z,6.10
2018-01-08T16:23:43.786Z,6.10
2018-01-08T16:26:12.924Z,6.10
2018-01-08T16:28:41.187Z,6.10
2018-01-08T16:31:09.450Z,6.10
2018-01-08T16:33:37.769Z,6.10
2018-01-08T16:36:06.048Z,6.10
2018-01-08T16:38:34.319Z,6.10
2018-01-08T16:41:02.610Z,6.10
2018-01-08T16:43:30.874Z,6.10
2018-01-08T16:45:59.123Z,6.00
2018-01-08T16:48:28.155Z,5.80
2018-01-08T16:50:56.452Z,5.80
2018-01-08T16:53:24.726Z,5.80
2018-01-08T16:55:52.973Z,5.80
2018-01-08T16:58:22.128Z,5.80
2018-01-08T17:00:50.375Z,5.80
2018-01-08T17:03:18.638Z,5.80
2018-01-08T17:05:46.896Z,5.80
2018-01-08T17:08:15.163Z,5.80
2018-01-08T17:10:43.665Z,5.70
2018-01-08T17:13:11.941Z,5.80
2018-01-08T17:15:40.292Z,5.80
2018-01-08T17:18:08.579Z,5.80
2018-01-08T17:20:36.828Z,5.80
2018-01-08T17:23:05.830Z,5.70
2018-01-08T17:25:34.837Z,5.60
2018-01-08T17:28:03.130Z,5.60
2018-01-08T17:30:31.410Z,5.70
2018-01-08T17:32:59.691Z,5.70
2018-01-08T17:35:27.929Z,5.70
2018-01-08T17:37:56.964Z,5.70
2018-01-08T17:40:25.215Z,5.70
2018-01-08T17:42:53.504Z,5.70
2018-01-08T17:45:21.767Z,5.60
2018-01-08T17:47:50.793Z,5.60
2018-01-08T17:50:19.046Z,5.60
2018-01-08T17:52:48.289Z,5.70
2018-01-08T17:55:16.571Z,5.60
2018-01-08T17:57:44.843Z,5.60
2018-01-08T18:00:13.090Z,5.70
2018-01-08T18:02:42.104Z,5.80
2018-01-08T18:05:10.394Z,5.90
2018-01-08T18:07:38.652Z,5.80
2018-01-08T18:10:07.702Z,5.80
2018-01-08T18:12:41.818Z,5.80
2018-01-08T18:15:10.110Z,5.90
2018-01-08T18:17:38.376Z,5.80
2018-01-08T18:20:06.761Z,5.70
2018-01-08T18:22:35.201Z,5.80
2018-01-08T18:25:04.340Z,5.80
2018-01-08T18:27:32.909Z,5.80
2018-01-08T18:30:02.129Z,5.80
2018-01-08T18:32:30.860Z,5.80
2018-01-08T18:34:59.192Z,5.70
2018-01-08T18:37:27.458Z,5.80
2018-01-08T18:39:56.590Z,5.80
2018-01-08T18:42:25.246Z,5.80
2018-01-08T18:44:53.518Z,5.80
2018-01-08T18:47:22.534Z,6.00
2018-01-08T18:49:50.790Z,5.90
2018-01-08T18:52:19.842Z,6.00
2018-01-08T18:54:48.110Z,6.00
2018-01-08T18:57:16.360Z,6.00
2018-01-08T18:59:45.466Z,5.90
2018-01-08T19:02:13.691Z,5.90
2018-01-08T19:04:41.950Z,6.00
2018-01-08T19:07:10.203Z,5.90
2018-01-08T19:09:38.491Z,6.00
2018-01-08T19:12:10.666Z,6.00
2018-01-08T19:14:40.262Z,6.00
2018-01-08T19:17:08.501Z,6.00
2018-01-08T19:19:37.521Z,6.00
2018-01-08T19:22:05.825Z,5.90
2018-01-08T19:24:34.114Z,6.00
2018-01-08T19:27:02.383Z,6.10
2018-01-08T19:29:30.626Z,6.10
2018-01-08T19:31:59.666Z,6.20
2018-01-08T19:34:27.946Z,6.20
2018-01-08T19:36:56.218Z,6.20
2018-01-08T19:39:24.457Z,6.10
2018-01-08T19:41:52.722Z,6.20
2018-01-08T19:44:20.982Z,6.20
2018-01-08T19:46:49.242Z,6.20
2018-01-08T19:49:17.500Z,6.20
2018-01-08T19:51:46.546Z,6.10
2018-01-08T19:54:14.833Z,6.00
2018-01-08T19:56:43.114Z,6.10
2018-01-08T19:59:11.378Z,6.00
2018-01-08T20:01:39.662Z,6.00
2018-01-08T20:06:47.586Z,6.00
2018-01-08T20:09:15.854Z,6.10
2018-01-08T20:11:44.123Z,6.10
2018-01-08T20:14:12.372Z,6.10
2018-01-08T20:16:40.646Z,6.00
2018-01-08T20:19:10.414Z,6.00
2018-01-08T20:21:38.811Z,6.00
2018-01-08T20:24:08.083Z,6.00
2018-01-08T20:26:37.212Z,6.20
2018-01-08T20:29:05.519Z,6.20
2018-01-08T20:31:33.782Z,6.10
2018-01-08T20:34:02.035Z,6.10
2018-01-08T20:36:31.054Z,6.20
2018-01-08T20:38:59.323Z,6.10
2018-01-08T20:41:27.579Z,6.10
2018-01-08T20:43:56.602Z,6.30
2018-01-08T20:46:24.851Z,6.30
2018-01-08T20:48:53.112Z,6.20
2018-01-08T20:51:21.363Z,6.20
2018-01-08T20:53:49.644Z,6.30
2018-01-08T20:56:17.900Z,6.20
2018-01-08T20:58:46.220Z,6.30
2018-01-08T21:01:14.468Z,6.20
2018-01-08T21:03:42.734Z,6.20
2018-01-08T21:06:11.758Z,6.30
2018-01-08T21:08:40.399Z,6.30
2018-01-08T21:11:08.649Z,6.20
2018-01-08T21:13:36.919Z,6.20
2018-01-08T21:16:05.171Z,6.30
2018-01-08T21:18:34.198Z,6.30
2018-01-08T21:21:02.460Z,6.30
2018-01-08T21:23:30.766Z,6.20
2018-01-08T21:25:59.011Z,6.20
2018-01-08T21:28:28.054Z,6.30
2018-01-08T21:30:56.341Z,6.30
2018-01-08T21:33:24.610Z,6.40
2018-01-08T21:35:52.853Z,6.40
2018-01-08T21:38:21.904Z,6.30
2018-01-08T21:40:50.178Z,6.30
2018-01-08T21:43:18.466Z,6.40
2018-01-08T21:45:46.722Z,6.40
2018-01-08T21:48:15.005Z,6.40
2018-01-08T21:50:43.248Z,6.40
2018-01-08T21:53:11.590Z,6.40
2018-01-08T21:55:39.867Z,6.40
2018-01-08T21:58:08.145Z,6.30
2018-01-08T22:00:36.428Z,6.40
2018-01-08T22:03:04.750Z,6.40
2018-01-08T22:05:33.016Z,6.40
2018-01-08T22:08:01.306Z,6.40
2018-01-08T22:10:29.559Z,6.40
2018-01-08T22:12:57.821Z,6.50
2018-01-08T22:15:26.087Z,6.40
2018-01-08T22:17:54.400Z,6.30
2018-01-08T22:20:22.678Z,6.30
2018-01-08T22:22:50.971Z,6.30
2018-01-08T22:25:19.338Z,6.40
2018-01-08T22:27:47.597Z,6.40
2018-01-08T22:30:15.874Z,6.40
2018-01-08T22:32:44.121Z,6.40
2018-01-08T22:35:12.499Z,6.40
2018-01-08T22:37:40.775Z,6.30
2018-01-08T22:40:09.063Z,6.40
2018-01-08T22:42:37.308Z,6.50
2018-01-08T22:45:05.600Z,6.50
2018-01-08T22:47:33.858Z,6.50
2018-01-08T22:50:02.149Z,6.40
2018-01-08T22:52:30.434Z,6.50
2018-01-08T22:54:58.710Z,6.40
2018-01-08T22:57:26.960Z,6.50
2018-01-08T22:59:55.226Z,6.60
2018-01-08T23:02:24.247Z,6.60
2018-01-08T23:04:52.512Z,6.60
2018-01-08T23:07:21.551Z,6.50
2018-01-08T23:09:49.834Z,6.60
2018-01-08T23:12:18.085Z,6.60
2018-01-08T23:14:46.331Z,6.70
2018-01-08T23:17:14.611Z,6.60
2018-01-08T23:19:42.865Z,6.50
2018-01-08T23:22:11.134Z,6.40
2018-01-08T23:24:39.386Z,6.50
2018-01-08T23:27:07.801Z,6.50
2018-01-08T23:29:36.056Z,6.60
2018-01-08T23:32:05.075Z,6.60
2018-01-08T23:34:33.331Z,6.60
2018-01-08T23:37:01.616Z,6.70
2018-01-08T23:39:30.646Z,6.60
2018-01-08T23:41:58.920Z,6.60
2018-01-08T23:44:27.196Z,6.60
2018-01-08T23:46:55.462Z,6.50
2018-01-08T23:49:23.727Z,6.60
2018-01-08T23:51:51.982Z,6.60
2018-01-08T23:54:23.026Z,6.60
2018-01-08T23:56:51.297Z,6.60
2018-01-08T23:59:19.658Z,6.60
